หน้าหลัก
METAR-TAF:

METAR-TAF

ท่าอากาศยาน :

Calabar, ไนจีเรีย

ละติจูด: 04-58N, ลองจิจูด: 008-21E, ความสูง: 63 ม.

การสังเกตสภาพอากาศปัจจุบัน

รายงานได้ทำขึ้นเมื่อ 15 ชั่วโมงและ 39 นาทีที่แล้ว ณ เวลา 16:00 UTC
ลม 3 นอตจากใต้
อุณหภูมิ 31°C
ความชื้น 66%
ความกดอากาศ 1010 hPa
ทัศนวิสัย 10 กม. หรือมากกว่า
มีเมฆเป็นส่วนมากเว้นเป็นระยะที่ความสูง 1200 ฟุต

METAR: DNCA 121600Z 18003KT 9999 BKN012 31/24 Q1010

เวลา: 08:39 (07:39 UTC)


TAF: หายไป

สังเกตการณ์สภาพอากาศและพยากรณ์อากาศของสนามบินมากกว่า 4000 แห่ง (รายงาน METAR และ TAF).

สถานีที่ดูได้จะแสดงไว้ด้วยจุดสีเหลืองและสีแดงบนแผนที่.

เลื่อนเมาส์ไปเหนือจุดเพื่อดูชื่อสถานี.

แล้วคลิกเพื่อดูสังเกตการณ์และการพยากรณ์สภาพอากาศ.

ในการเปลี่ยนแผนที่: คลิกที่ปุ่มสีเขียวที่มีกากบาทสีดำเพื่อซูมเข้า; ที่ปุ่มสีเขียวที่มีขีดเพื่อซูมออก; หรือที่ลูกศรสีเขียวเพื่อไปยังแผนที่ที่อยู่ติดกัน.


METAR-TAF: